Time;durP1;ratioP1;P1;durP2;ratioP2;P2;SDS_P1;SDS_P2;PMS_P1;PMS_P2;Temp;Humidity;BMP_temperature;BMP_pressure;BME280_temperature;BME280_humidity;BME280_pressure;Samples;Min_cycle;Max_cycle;Signal;HPM_P1;HPM_P2
2021/07/04 00:00:36;;;;;;;1.77;0.90;;;12.10;99.90;;;;;;5072004;28;20221;-70
2021/07/04 00:03:05;;;;;;;3.23;0.90;;;12.10;99.90;;;;;;5065092;28;20270;-72
2021/07/04 00:05:43;;;;;;;1.57;0.80;;;12.20;99.90;;;;;;5072372;28;20195;-69
2021/07/04 00:08:15;;;;;;;2.90;0.80;;;12.30;99.80;;;;;;5071852;28;20711;-69
2021/07/04 00:10:57;;;;;;;3.57;0.90;;;12.40;99.80;;;;;;5064428;28;20221;-69
2021/07/04 00:13:26;;;;;;;2.73;0.90;;;12.40;99.40;;;;;;5070351;28;20684;-72
2021/07/04 00:15:54;;;;;;;2.27;0.70;;;12.50;98.60;;;;;;5064272;28;20232;-69
2021/07/04 00:18:23;;;;;;;2.20;0.90;;;12.50;98.50;;;;;;5055049;28;20222;-69
2021/07/04 00:20:53;;;;;;;2.67;0.97;;;12.60;98.80;;;;;;5072183;28;20171;-70
2021/07/04 00:23:21;;;;;;;1.67;0.80;;;12.70;98.80;;;;;;5072030;28;20252;-69
2021/07/04 00:25:49;;;;;;;1.60;0.90;;;12.80;98.40;;;;;;5072747;28;20218;-71
2021/07/04 00:28:17;;;;;;;2.27;0.93;;;12.80;98.10;;;;;;5072316;28;20189;-71
2021/07/04 00:30:45;;;;;;;2.87;0.90;;;12.80;98.10;;;;;;5072520;28;20688;-71
2021/07/04 00:33:12;;;;;;;2.40;0.80;;;13.00;98.10;;;;;;5072530;28;20456;-69
2021/07/04 00:35:40;;;;;;;2.70;0.83;;;13.00;98.60;;;;;;5070047;28;20191;-71
2021/07/04 00:38:09;;;;;;;1.33;0.80;;;13.10;96.90;;;;;;5061242;28;20191;-70
2021/07/04 00:40:37;;;;;;;2.57;0.70;;;12.90;96.50;;;;;;5059985;28;20211;-69
2021/07/04 00:43:06;;;;;;;2.73;1.00;;;13.00;97.20;;;;;;5052809;28;20184;-70
2021/07/04 00:45:33;;;;;;;1.27;0.63;;;13.20;96.80;;;;;;5064037;28;20197;-70
2021/07/04 00:48:02;;;;;;;3.00;1.00;;;13.10;96.70;;;;;;5072804;28;20167;-73
2021/07/04 00:50:31;;;;;;;1.40;0.73;;;13.10;96.10;;;;;;5072446;28;20198;-69
2021/07/04 00:53:00;;;;;;;2.63;0.90;;;13.20;96.40;;;;;;5053714;28;20233;-68
2021/07/04 00:55:28;;;;;;;2.40;0.90;;;13.20;96.20;;;;;;5069899;28;20214;-74
2021/07/04 00:57:56;;;;;;;1.70;0.90;;;13.30;96.70;;;;;;5070371;28;20269;-70
2021/07/04 01:00:30;;;;;;;1.53;0.60;;;13.20;95.80;;;;;;5070227;28;20219;-67
2021/07/04 01:02:58;;;;;;;3.53;0.73;;;13.30;95.90;;;;;;5071996;28;20177;-71
2021/07/04 01:05:31;;;;;;;1.33;0.87;;;13.30;96.20;;;;;;5064011;28;20187;-71
2021/07/04 01:08:00;;;;;;;2.77;0.83;;;13.20;95.60;;;;;;5058197;28;20262;-69
2021/07/04 01:10:30;;;;;;;1.33;0.70;;;13.20;95.70;;;;;;5064679;28;20271;-67
2021/07/04 01:13:01;;;;;;;4.13;0.80;;;13.40;96.30;;;;;;5044462;28;20202;-78
2021/07/04 01:15:34;;;;;;;1.00;0.77;;;13.40;95.60;;;;;;5046324;28;20200;-70
2021/07/04 01:18:05;;;;;;;0.50;0.50;;;13.50;96.00;;;;;;5048930;28;20231;-72
2021/07/04 01:20:39;;;;;;;1.03;0.57;;;13.60;95.00;;;;;;5056320;28;20268;-68
2021/07/04 01:23:10;;;;;;;4.53;1.20;;;13.50;95.40;;;;;;5075918;28;20184;-69
2021/07/04 01:25:55;;;;;;;1.27;0.70;;;13.60;96.00;;;;;;5058094;28;20179;-73
2021/07/04 01:28:29;;;;;;;3.73;0.70;;;14.00;95.30;;;;;;5075789;28;20615;-70
2021/07/04 01:31:02;;;;;;;1.80;0.87;;;14.00;94.60;;;;;;5074266;28;20183;-70
2021/07/04 01:33:30;;;;;;;2.60;1.00;;;14.00;94.90;;;;;;5056781;28;20183;-69
2021/07/04 01:36:01;;;;;;;2.80;0.97;;;14.10;94.90;;;;;;5047713;28;20235;-70
2021/07/04 01:38:31;;;;;;;1.00;0.70;;;14.10;94.30;;;;;;5055664;28;20192;-69
2021/07/04 01:41:09;;;;;;;0.70;0.60;;;14.10;94.90;;;;;;5056819;28;20184;-73
2021/07/04 01:43:36;;;;;;;1.43;0.50;;;14.30;94.40;;;;;;5046018;28;20230;-75
2021/07/04 01:46:04;;;;;;;2.37;0.80;;;14.50;94.00;;;;;;5056959;28;20267;-73
2021/07/04 01:48:31;;;;;;;1.23;0.90;;;14.40;93.40;;;;;;5051096;28;20186;-71
2021/07/04 01:50:59;;;;;;;0.87;0.57;;;14.60;93.70;;;;;;5054849;28;20626;-71
2021/07/04 01:53:30;;;;;;;1.00;0.73;;;14.90;93.00;;;;;;5073968;28;20176;-72
2021/07/04 01:55:57;;;;;;;2.03;0.80;;;14.80;92.60;;;;;;5074966;28;20238;-69
2021/07/04 01:58:26;;;;;;;3.10;0.90;;;14.70;92.50;;;;;;5074751;28;20179;-70
2021/07/04 02:00:53;;;;;;;1.33;0.80;;;14.70;92.90;;;;;;5075103;28;20195;-69
2021/07/04 02:03:20;;;;;;;1.13;0.80;;;15.00;92.90;;;;;;5073768;28;20700;-71
2021/07/04 02:05:48;;;;;;;3.63;0.77;;;15.00;92.50;;;;;;5054222;28;20191;-69
2021/07/04 02:08:15;;;;;;;0.83;0.60;;;14.80;92.20;;;;;;5071477;28;20634;-69
2021/07/04 02:10:44;;;;;;;0.60;0.50;;;14.60;92.70;;;;;;5075016;28;20217;-70
2021/07/04 02:13:11;;;;;;;1.13;0.70;;;15.00;92.80;;;;;;5075324;28;20169;-68
2021/07/04 02:15:54;;;;;;;1.33;0.80;;;15.20;91.50;;;;;;5068083;28;20329;-73
2021/07/04 02:18:23;;;;;;;2.17;0.80;;;15.20;91.20;;;;;;5038912;28;20256;-72
2021/07/04 02:20:55;;;;;;;3.80;1.70;;;15.10;92.00;;;;;;5044387;28;20253;-70
2021/07/04 02:23:31;;;;;;;1.30;0.70;;;15.10;91.60;;;;;;5047202;28;20188;-68
2021/07/04 02:25:59;;;;;;;1.87;0.80;;;15.10;91.50;;;;;;5055227;28;20676;-69
2021/07/04 02:28:28;;;;;;;3.13;2.17;;;15.10;91.50;;;;;;5053954;28;20520;-71
2021/07/04 02:30:58;;;;;;;1.77;1.00;;;15.00;92.00;;;;;;5054056;28;20177;-68
2021/07/04 02:33:26;;;;;;;2.53;0.93;;;15.30;91.60;;;;;;5053615;28;20180;-72
2021/07/04 02:35:57;;;;;;;2.27;1.30;;;15.20;90.70;;;;;;5044404;28;20519;-70
2021/07/04 02:38:25;;;;;;;4.40;1.60;;;15.00;92.00;;;;;;5054150;28;20209;-73
2021/07/04 02:40:53;;;;;;;5.33;0.83;;;15.10;91.40;;;;;;5054628;28;20183;-73
2021/07/04 02:43:24;;;;;;;2.70;0.90;;;15.10;91.30;;;;;;5054217;28;20176;-69
2021/07/04 02:45:52;;;;;;;1.97;0.90;;;15.30;91.60;;;;;;5054377;28;20310;-72
2021/07/04 02:48:20;;;;;;;1.60;0.70;;;15.70;92.00;;;;;;5054845;28;20272;-71
2021/07/04 02:50:48;;;;;;;1.77;1.00;;;15.80;91.10;;;;;;5054476;28;20184;-69
2021/07/04 02:53:15;;;;;;;2.27;0.70;;;16.00;89.90;;;;;;5064152;28;20179;-76
2021/07/04 02:55:44;;;;;;;3.03;0.80;;;15.90;90.00;;;;;;5053831;28;20191;-71
2021/07/04 02:58:11;;;;;;;2.10;0.83;;;16.00;90.20;;;;;;5063291;28;20175;-71
2021/07/04 03:00:41;;;;;;;2.43;1.30;;;15.80;91.30;;;;;;5053800;28;20218;-75
2021/07/04 03:03:08;;;;;;;2.57;1.30;;;16.00;90.50;;;;;;5053952;28;20179;-71
2021/07/04 03:05:36;;;;;;;1.93;1.03;;;15.70;90.20;;;;;;5053973;28;20183;-69
2021/07/04 03:08:05;;;;;;;1.63;0.93;;;15.80;90.80;;;;;;5053390;28;20182;-71
2021/07/04 03:10:32;;;;;;;1.70;1.10;;;15.80;91.10;;;;;;5053577;28;20193;-69
2021/07/04 03:13:00;;;;;;;1.50;1.17;;;15.70;90.80;;;;;;5053670;28;20234;-74
2021/07/04 03:15:27;;;;;;;2.00;0.83;;;15.50;90.90;;;;;;5053535;28;20187;-74
2021/07/04 03:17:55;;;;;;;2.97;1.47;;;15.70;91.40;;;;;;5053838;28;20672;-71
2021/07/04 03:20:22;;;;;;;2.90;1.10;;;15.90;91.50;;;;;;5053254;28;20227;-79
2021/07/04 03:22:53;;;;;;;3.00;0.90;;;15.80;91.10;;;;;;5050798;28;20180;-80
2021/07/04 03:25:21;;;;;;;2.53;0.80;;;15.60;90.10;;;;;;5061457;28;21101;-77
2021/07/04 03:27:48;;;;;;;0.77;0.63;;;15.60;90.40;;;;;;5055477;28;20660;-73
2021/07/04 03:30:19;;;;;;;2.43;0.80;;;15.80;91.10;;;;;;5055077;28;20228;-81
2021/07/04 03:32:49;;;;;;;3.83;0.80;;;16.10;90.60;;;;;;5027203;28;20208;-72
2021/07/04 03:35:17;;;;;;;1.87;0.80;;;16.30;90.10;;;;;;5052079;28;20184;-71
2021/07/04 03:37:46;;;;;;;2.13;0.73;;;16.60;86.70;;;;;;5052048;28;20184;-71
2021/07/04 03:40:18;;;;;;;2.50;0.93;;;16.60;88.20;;;;;;5053734;28;20245;-75
2021/07/04 03:42:47;;;;;;;4.20;0.80;;;16.50;87.50;;;;;;5041103;28;20194;-74
2021/07/04 03:45:24;;;;;;;1.57;0.77;;;17.00;86.50;;;;;;5042740;28;20676;-81
2021/07/04 03:47:53;;;;;;;1.63;0.90;;;17.40;85.30;;;;;;5038342;28;20202;-77
2021/07/04 03:50:21;;;;;;;2.83;0.80;;;17.30;84.60;;;;;;5017117;28;20204;-76
2021/07/04 03:52:53;;;;;;;1.63;0.80;;;17.40;84.50;;;;;;5049578;28;20250;-74
2021/07/04 03:55:21;;;;;;;1.23;0.80;;;17.10;83.80;;;;;;5052824;28;20188;-76
2021/07/04 03:57:48;;;;;;;2.87;0.83;;;17.20;84.30;;;;;;5052265;28;20188;-79
2021/07/04 04:00:16;;;;;;;1.63;0.90;;;17.30;84.50;;;;;;5035277;28;20674;-76
2021/07/04 04:02:44;;;;;;;2.47;1.90;;;17.60;83.10;;;;;;5050522;28;20537;-72
2021/07/04 04:05:12;;;;;;;4.20;1.70;;;17.60;82.70;;;;;;5044753;28;20172;-72
2021/07/04 04:07:40;;;;;;;0.93;0.83;;;18.20;80.40;;;;;;5036654;28;20200;-68
2021/07/04 04:10:09;;;;;;;2.27;0.90;;;18.20;79.90;;;;;;5044871;28;20184;-69
2021/07/04 04:12:36;;;;;;;4.10;1.03;;;18.50;79.30;;;;;;5052083;28;20188;-72
2021/07/04 04:15:05;;;;;;;1.73;0.77;;;18.60;79.10;;;;;;5034590;28;20195;-71
2021/07/04 04:17:33;;;;;;;7.47;0.93;;;18.70;77.90;;;;;;5056201;28;20597;-71
2021/07/04 04:20:01;;;;;;;1.47;0.80;;;18.60;78.30;;;;;;5070782;28;20211;-70
2021/07/04 04:22:28;;;;;;;3.77;2.20;;;18.50;77.40;;;;;;5069147;28;20238;-71
2021/07/04 04:24:55;;;;;;;2.23;0.93;;;18.00;76.40;;;;;;5072321;28;20246;-76
2021/07/04 04:27:23;;;;;;;3.27;1.77;;;18.10;77.90;;;;;;5072807;28;20629;-71
2021/07/04 04:29:50;;;;;;;1.57;0.67;;;18.40;77.20;;;;;;5072307;28;20270;-69
2021/07/04 04:32:18;;;;;;;1.50;0.90;;;18.30;77.40;;;;;;5071916;28;20182;-72
2021/07/04 04:34:45;;;;;;;2.57;0.77;;;18.40;76.60;;;;;;5071976;28;20216;-71
2021/07/04 04:37:13;;;;;;;2.17;0.80;;;18.40;77.10;;;;;;5069588;28;20183;-72
2021/07/04 04:39:40;;;;;;;1.13;0.73;;;18.50;76.00;;;;;;5061193;28;20215;-71
2021/07/04 04:42:08;;;;;;;2.70;0.80;;;18.70;77.50;;;;;;5063840;28;20172;-70
2021/07/04 04:44:36;;;;;;;5.60;0.90;;;18.80;75.10;;;;;;5072327;28;20262;-72
2021/07/04 04:47:05;;;;;;;1.37;0.87;;;18.40;75.20;;;;;;5072571;28;20225;-70
2021/07/04 04:49:36;;;;;;;1.17;0.60;;;18.30;75.30;;;;;;5071936;28;20183;-72
2021/07/04 04:52:05;;;;;;;2.30;0.60;;;18.00;76.20;;;;;;5072388;28;20175;-72
2021/07/04 04:54:33;;;;;;;3.40;0.77;;;18.30;75.80;;;;;;5073069;28;20277;-71
2021/07/04 04:57:06;;;;;;;1.97;0.87;;;18.50;75.70;;;;;;5075993;28;20187;-72
2021/07/04 04:59:38;;;;;;;3.50;0.77;;;18.50;75.80;;;;;;5075956;28;20210;-71
2021/07/04 05:02:07;;;;;;;1.47;0.70;;;18.60;74.40;;;;;;5076094;28;20262;-73
2021/07/04 05:04:34;;;;;;;1.80;0.70;;;18.50;75.10;;;;;;5076059;28;20215;-73
2021/07/04 05:07:01;;;;;;;3.23;0.70;;;18.90;74.40;;;;;;5057809;28;20190;-70
2021/07/04 05:09:29;;;;;;;2.33;0.90;;;18.50;73.50;;;;;;5076228;28;20646;-71
2021/07/04 05:11:56;;;;;;;3.80;0.70;;;18.50;74.10;;;;;;5076390;28;20531;-70
2021/07/04 05:14:24;;;;;;;0.97;0.90;;;18.50;74.00;;;;;;5075657;28;20207;-69
2021/07/04 05:16:51;;;;;;;2.20;1.00;;;18.70;74.90;;;;;;5075738;28;20243;-70
2021/07/04 05:19:19;;;;;;;3.10;1.10;;;19.00;73.30;;;;;;5076237;28;20269;-75
2021/07/04 05:21:46;;;;;;;1.43;1.00;;;19.10;72.30;;;;;;5075264;28;20183;-78
2021/07/04 05:24:13;;;;;;;3.47;0.90;;;19.10;72.30;;;;;;5073795;28;20179;-70
2021/07/04 05:26:41;;;;;;;2.27;0.70;;;18.90;71.80;;;;;;5075583;28;20648;-71
2021/07/04 05:29:09;;;;;;;2.00;0.90;;;19.10;72.30;;;;;;5075535;28;20201;-71
2021/07/04 05:31:37;;;;;;;1.87;0.73;;;19.40;70.90;;;;;;5075400;28;20199;-73
2021/07/04 05:34:05;;;;;;;1.80;0.77;;;19.20;71.80;;;;;;5076159;28;20266;-72
2021/07/04 05:36:32;;;;;;;3.10;0.70;;;19.00;72.30;;;;;;5076505;28;20187;-77
2021/07/04 05:39:00;;;;;;;1.63;0.80;;;19.00;72.00;;;;;;5075448;28;20249;-71
2021/07/04 05:41:27;;;;;;;0.80;0.60;;;19.20;71.70;;;;;;5062158;28;20279;-72
2021/07/04 05:43:54;;;;;;;0.70;0.70;;;19.00;72.50;;;;;;5076011;28;20202;-71
2021/07/04 05:46:22;;;;;;;2.87;0.90;;;18.70;72.90;;;;;;5074883;28;20190;-71
2021/07/04 05:48:50;;;;;;;2.10;0.83;;;18.90;72.00;;;;;;5074267;28;20179;-71
2021/07/04 05:51:17;;;;;;;1.50;0.83;;;18.90;71.20;;;;;;5067920;28;20210;-72
2021/07/04 05:53:44;;;;;;;1.23;0.77;;;19.20;71.10;;;;;;5064133;28;20234;-72
2021/07/04 05:56:12;;;;;;;1.40;0.70;;;18.50;70.40;;;;;;5069183;28;20795;-72
2021/07/04 05:58:39;;;;;;;6.27;1.10;;;18.30;71.60;;;;;;5067191;28;20175;-72
2021/07/04 06:01:06;;;;;;;1.97;0.83;;;18.60;71.10;;;;;;5074066;28;20549;-72
2021/07/04 06:03:34;;;;;;;1.73;1.03;;;19.20;70.60;;;;;;5079616;28;20538;-71
2021/07/04 06:06:01;;;;;;;1.77;0.90;;;19.60;70.30;;;;;;5072280;28;20191;-72
2021/07/04 06:08:29;;;;;;;1.20;0.90;;;19.60;69.80;;;;;;5073845;28;20669;-71
2021/07/04 06:10:57;;;;;;;1.20;0.90;;;19.40;70.80;;;;;;5074277;28;20237;-72
2021/07/04 06:13:25;;;;;;;2.13;0.70;;;19.20;70.10;;;;;;5074706;28;20190;-73
2021/07/04 06:15:52;;;;;;;2.47;1.03;;;18.60;70.40;;;;;;5074264;28;20187;-73
2021/07/04 06:18:19;;;;;;;3.67;1.00;;;17.90;72.00;;;;;;5073963;28;20221;-74
2021/07/04 06:20:47;;;;;;;1.83;0.80;;;17.50;72.90;;;;;;5072656;28;20215;-72
2021/07/04 06:23:14;;;;;;;2.57;0.80;;;17.00;74.60;;;;;;5074246;28;20241;-69
2021/07/04 06:25:41;;;;;;;2.23;1.00;;;16.80;75.00;;;;;;5074376;28;20186;-73
2021/07/04 06:28:09;;;;;;;1.37;0.83;;;16.70;76.50;;;;;;5074289;28;20186;-75
2021/07/04 06:30:36;;;;;;;1.33;0.90;;;16.60;75.60;;;;;;5069935;28;20197;-73
2021/07/04 06:33:04;;;;;;;1.67;0.90;;;16.60;77.40;;;;;;5074467;28;20179;-70
2021/07/04 06:35:31;;;;;;;1.07;0.70;;;16.20;77.50;;;;;;5073817;28;20188;-69
2021/07/04 06:37:58;;;;;;;2.23;0.80;;;15.90;79.80;;;;;;5074026;28;20185;-71
2021/07/04 06:40:26;;;;;;;3.10;0.80;;;15.80;80.30;;;;;;5074142;28;20218;-72
2021/07/04 06:42:53;;;;;;;0.90;0.70;;;15.60;81.10;;;;;;5055159;28;20190;-73
2021/07/04 06:45:20;;;;;;;2.10;1.00;;;15.40;82.50;;;;;;5073735;28;20698;-76
2021/07/04 06:47:50;;;;;;;5.77;1.90;;;15.20;84.60;;;;;;5071066;28;20185;-73
2021/07/04 06:50:19;;;;;;;3.57;2.10;;;15.10;84.90;;;;;;5053952;28;20472;-70
2021/07/04 06:52:47;;;;;;;7.93;2.50;;;15.00;86.90;;;;;;5073563;28;20201;-70
2021/07/04 06:55:15;;;;;;;5.23;3.10;;;14.80;87.10;;;;;;5073147;28;20184;-70
2021/07/04 06:57:44;;;;;;;11.60;5.83;;;14.70;89.10;;;;;;5064101;28;20208;-70
2021/07/04 07:00:14;;;;;;;12.17;5.83;;;14.70;90.70;;;;;;5044448;28;20617;-72
2021/07/04 07:02:42;;;;;;;8.17;3.80;;;14.60;91.70;;;;;;5064624;28;20180;-70
2021/07/04 07:05:12;;;;;;;7.17;3.27;;;14.40;92.00;;;;;;5068221;28;20189;-70
2021/07/04 07:07:40;;;;;;;5.20;3.03;;;14.30;93.20;;;;;;5072784;28;20637;-70
2021/07/04 07:10:10;;;;;;;6.10;2.90;;;14.20;93.80;;;;;;5073119;28;20566;-75
2021/07/04 07:12:39;;;;;;;5.63;2.90;;;14.10;95.50;;;;;;5072821;28;20194;-74
2021/07/04 07:15:07;;;;;;;2.83;1.80;;;14.00;96.30;;;;;;5072968;28;20191;-74
2021/07/04 07:17:35;;;;;;;2.73;1.77;;;13.90;97.10;;;;;;5072380;28;20246;-70
2021/07/04 07:20:03;;;;;;;4.37;2.03;;;13.70;96.80;;;;;;5073178;28;20264;-72
2021/07/04 07:22:30;;;;;;;3.93;1.90;;;13.60;97.50;;;;;;5069907;28;20191;-69
2021/07/04 07:24:57;;;;;;;3.53;2.20;;;13.70;98.10;;;;;;5073230;28;20187;-70
2021/07/04 07:27:25;;;;;;;3.83;2.03;;;13.60;98.30;;;;;;5069522;28;20182;-70
2021/07/04 07:29:52;;;;;;;3.53;2.33;;;13.60;98.50;;;;;;5072778;28;20664;-74
2021/07/04 07:32:20;;;;;;;5.40;3.67;;;13.50;99.00;;;;;;5071935;28;20194;-70
2021/07/04 07:34:47;;;;;;;7.10;3.93;;;13.50;99.50;;;;;;5072629;28;20191;-69
2021/07/04 07:37:15;;;;;;;3.23;2.57;;;13.40;99.90;;;;;;5072776;28;20183;-75
2021/07/04 07:39:43;;;;;;;7.53;3.73;;;13.30;99.90;;;;;;5071779;28;20207;-76
2021/07/04 07:42:13;;;;;;;7.50;3.90;;;13.20;99.90;;;;;;5053777;28;20189;-72
2021/07/04 07:44:40;;;;;;;6.50;3.67;;;13.20;99.90;;;;;;5072525;28;20182;-74
2021/07/04 07:47:09;;;;;;;10.33;4.00;;;13.10;99.90;;;;;;5071349;28;20198;-72
2021/07/04 07:49:36;;;;;;;10.37;4.00;;;12.90;99.90;;;;;;5072628;28;20205;-72
2021/07/04 07:52:04;;;;;;;8.63;4.40;;;12.80;99.90;;;;;;5069682;28;20175;-72
2021/07/04 07:54:32;;;;;;;11.23;6.90;;;12.80;99.90;;;;;;5058932;28;20206;-69
2021/07/04 07:57:03;;;;;;;13.27;7.77;;;12.70;99.90;;;;;;5051123;28;20568;-72
2021/07/04 07:59:34;;;;;;;19.23;10.70;;;12.60;99.90;;;;;;5068936;28;20810;-68
2021/07/04 08:02:01;;;;;;;17.87;10.47;;;12.60;99.90;;;;;;5071391;28;20206;-77
2021/07/04 08:04:29;;;;;;;16.73;9.23;;;12.50;99.90;;;;;;5072918;28;20267;-79
2021/07/04 08:06:56;;;;;;;16.47;8.77;;;12.50;99.90;;;;;;5068793;28;20236;-75
2021/07/04 08:09:23;;;;;;;15.53;7.97;;;12.50;99.90;;;;;;5071984;28;20195;-77
2021/07/04 08:11:51;;;;;;;14.57;8.27;;;12.50;99.90;;;;;;5072300;28;20194;-77
2021/07/04 08:14:18;;;;;;;18.03;10.83;;;12.50;99.90;;;;;;5072341;28;20550;-78
2021/07/04 08:16:45;;;;;;;16.53;9.30;;;12.50;99.90;;;;;;5070129;28;20707;-78
2021/07/04 08:19:13;;;;;;;16.97;9.00;;;12.40;99.90;;;;;;5035686;28;20550;-77
2021/07/04 08:21:41;;;;;;;14.87;7.57;;;12.40;99.90;;;;;;5053837;28;20219;-78
2021/07/04 08:24:10;;;;;;;14.47;6.93;;;12.30;99.90;;;;;;5061093;28;20314;-76
2021/07/04 08:26:37;;;;;;;12.80;6.77;;;12.20;99.90;;;;;;5057388;28;20187;-74
2021/07/04 08:29:05;;;;;;;9.90;6.00;;;12.20;99.90;;;;;;5058907;28;20543;-78
2021/07/04 08:31:32;;;;;;;6.53;4.67;;;12.10;99.90;;;;;;5068281;28;20198;-78
2021/07/04 08:34:00;;;;;;;10.07;5.37;;;12.00;99.90;;;;;;5057676;28;20686;-79
2021/07/04 08:36:30;;;;;;;7.77;5.10;;;12.00;99.90;;;;;;5057330;28;20271;-76
2021/07/04 08:38:58;;;;;;;6.50;4.43;;;12.00;99.90;;;;;;5058736;28;20200;-76
2021/07/04 08:41:25;;;;;;;9.37;4.50;;;11.90;99.90;;;;;;5052387;28;20176;-75
2021/07/04 08:43:53;;;;;;;13.77;5.40;;;11.90;99.90;;;;;;5052514;28;20180;-77
2021/07/04 08:46:20;;;;;;;26.73;14.93;;;11.90;99.90;;;;;;5056670;28;20656;-75
2021/07/04 08:48:48;;;;;;;20.47;11.53;;;11.90;99.90;;;;;;5053947;28;20183;-75
2021/07/04 08:51:16;;;;;;;14.87;7.07;;;11.80;99.90;;;;;;5051138;28;20217;-74
2021/07/04 08:53:44;;;;;;;12.13;6.23;;;11.80;99.90;;;;;;5050949;28;20199;-71
2021/07/04 08:56:11;;;;;;;11.30;6.53;;;11.80;99.90;;;;;;5052216;28;20194;-73
2021/07/04 08:58:39;;;;;;;10.90;7.20;;;11.70;99.90;;;;;;5053343;28;20543;-73
2021/07/04 09:01:14;;;;;;;12.27;6.93;;;11.70;99.90;;;;;;5052044;28;20187;-71
2021/07/04 09:03:47;;;;;;;13.20;7.20;;;11.60;99.90;;;;;;5063679;28;20183;-71
2021/07/04 09:06:15;;;;;;;12.00;7.77;;;11.60;99.90;;;;;;5068259;28;20195;-72
2021/07/04 09:08:43;;;;;;;12.60;6.70;;;11.50;99.90;;;;;;5052795;28;20184;-71
2021/07/04 09:11:17;;;;;;;17.33;8.07;;;11.50;99.90;;;;;;5061367;28;20175;-70
2021/07/04 09:13:47;;;;;;;12.97;7.97;;;11.50;99.90;;;;;;5047688;28;20223;-73
2021/07/04 09:16:18;;;;;;;10.30;6.13;;;11.40;99.90;;;;;;5057238;28;20187;-71
2021/07/04 09:18:45;;;;;;;12.73;6.23;;;11.40;99.90;;;;;;5064554;28;22309;-69
2021/07/04 09:21:20;;;;;;;11.37;5.90;;;11.50;99.90;;;;;;5057131;28;20207;-70
2021/07/04 09:23:48;;;;;;;12.33;7.03;;;11.50;99.90;;;;;;5061106;28;20205;-69
2021/07/04 09:26:40;;;;;;;13.27;6.67;;;11.40;99.90;;;;;;5053701;28;20172;-69
2021/07/04 09:29:09;;;;;;;10.53;6.20;;;11.40;99.90;;;;;;5055746;28;20280;-69
2021/07/04 09:31:38;;;;;;;13.03;5.90;;;11.30;99.90;;;;;;5041765;28;20751;-72
2021/07/04 09:34:11;;;;;;;9.07;5.70;;;11.30;99.90;;;;;;5057627;28;20187;-68
2021/07/04 09:36:40;;;;;;;9.80;5.70;;;11.30;99.90;;;;;;5035580;28;20187;-69
2021/07/04 09:39:19;;;;;;;8.20;5.03;;;11.30;99.90;;;;;;5056928;28;20210;-70
2021/07/04 09:42:12;;;;;;;7.67;4.53;;;11.20;99.90;;;;;;5055748;28;20198;-70
2021/07/04 09:44:40;;;;;;;9.47;5.30;;;11.10;99.90;;;;;;5055121;28;20188;-69
2021/07/04 09:47:20;;;;;;;8.53;5.03;;;11.10;99.90;;;;;;5049762;28;20179;-70
2021/07/04 09:49:49;;;;;;;11.47;4.80;;;11.10;99.90;;;;;;5067919;28;20187;-70
2021/07/04 09:52:17;;;;;;;8.07;5.30;;;11.10;99.90;;;;;;5059172;28;20526;-72
2021/07/04 09:55:03;;;;;;;6.67;4.77;;;11.00;99.90;;;;;;5053729;28;20263;-69
2021/07/04 09:57:54;;;;;;;7.50;4.40;;;11.00;99.90;;;;;;5061150;28;20305;-69
2021/07/04 10:00:22;;;;;;;6.50;4.20;;;10.90;99.90;;;;;;5053313;28;20902;-69
2021/07/04 10:03:05;;;;;;;9.53;4.20;;;10.90;99.90;;;;;;5045248;28;20195;-68
2021/07/04 10:05:33;;;;;;;8.50;4.40;;;10.90;99.90;;;;;;5071019;28;20653;-69
2021/07/04 10:08:01;;;;;;;6.00;4.43;;;10.80;99.90;;;;;;5066007;28;20182;-70
2021/07/04 10:10:28;;;;;;;7.10;4.50;;;10.80;99.90;;;;;;5055050;28;20172;-68
2021/07/04 10:12:56;;;;;;;9.17;4.60;;;10.70;99.90;;;;;;5061078;28;20190;-69
2021/07/04 10:15:23;;;;;;;7.63;5.10;;;10.70;99.90;;;;;;5059013;28;20561;-68
2021/07/04 10:17:53;;;;;;;9.10;4.20;;;10.60;99.90;;;;;;5054443;28;20238;-72
2021/07/04 10:20:22;;;;;;;9.87;4.87;;;10.50;99.90;;;;;;5042285;28;20215;-69
2021/07/04 10:22:49;;;;;;;11.03;5.50;;;10.40;99.90;;;;;;5035358;28;20185;-70
2021/07/04 10:25:17;;;;;;;9.50;5.80;;;10.40;99.90;;;;;;5054189;28;20180;-70
2021/07/04 10:27:44;;;;;;;7.30;4.90;;;10.30;99.90;;;;;;5046847;28;20195;-70
2021/07/04 10:30:12;;;;;;;8.93;5.60;;;10.30;99.90;;;;;;5054641;28;20206;-73
2021/07/04 10:33:05;;;;;;;8.37;5.33;;;10.20;99.90;;;;;;5050505;28;20177;-73
2021/07/04 10:35:33;;;;;;;8.27;5.53;;;10.20;99.90;;;;;;5054345;28;20176;-69
2021/07/04 10:38:15;;;;;;;10.57;6.70;;;10.20;99.90;;;;;;5045036;28;20533;-71
2021/07/04 10:40:43;;;;;;;11.80;6.80;;;10.10;99.90;;;;;;5047171;28;20233;-69
2021/07/04 10:43:30;;;;;;;12.30;6.30;;;10.10;99.90;;;;;;5038853;28;20186;-69
2021/07/04 10:45:57;;;;;;;13.40;6.90;;;10.10;99.90;;;;;;5053579;28;20183;-69
2021/07/04 10:48:30;;;;;;;13.80;6.90;;;10.10;99.90;;;;;;5054579;28;20259;-71
2021/07/04 10:51:17;;;;;;;11.90;6.80;;;10.10;99.90;;;;;;5053956;28;20176;-71
2021/07/04 10:53:52;;;;;;;13.53;7.03;;;10.00;99.90;;;;;;5052529;28;20653;-70
2021/07/04 10:56:42;;;;;;;13.03;7.17;;;10.00;99.90;;;;;;5049010;28;20175;-69
2021/07/04 10:59:16;;;;;;;12.10;6.50;;;10.00;99.90;;;;;;5053994;28;20691;-69
2021/07/04 11:01:59;;;;;;;10.97;6.80;;;9.90;99.90;;;;;;5052509;28;20265;-73
2021/07/04 11:04:51;;;;;;;9.03;6.03;;;9.90;99.90;;;;;;5054315;28;20191;-73
2021/07/04 11:07:18;;;;;;;9.03;6.33;;;9.80;99.90;;;;;;5026210;28;20195;-69
2021/07/04 11:09:57;;;;;;;10.53;5.90;;;9.70;99.90;;;;;;5053620;28;20637;-70
2021/07/04 11:12:34;;;;;;;12.13;6.13;;;9.70;99.90;;;;;;5053318;28;20190;-70
2021/07/04 11:15:13;;;;;;;9.17;5.70;;;9.70;99.90;;;;;;5053631;28;20282;-69
2021/07/04 11:18:00;;;;;;;9.67;5.80;;;9.70;99.90;;;;;;5055779;28;20230;-70
2021/07/04 11:20:28;;;;;;;9.77;5.53;;;9.60;99.90;;;;;;5053065;28;20214;-71
2021/07/04 11:22:57;;;;;;;8.93;5.37;;;9.60;99.90;;;;;;5053100;28;20183;-72
2021/07/04 11:25:26;;;;;;;9.80;5.73;;;9.60;99.90;;;;;;5063209;28;20183;-70
2021/07/04 11:28:20;;;;;;;8.13;5.07;;;9.60;99.90;;;;;;5052232;28;20183;-71
2021/07/04 11:31:05;;;;;;;13.43;4.90;;;9.60;99.90;;;;;;5053048;28;20189;-69
2021/07/04 11:33:37;;;;;;;6.70;4.60;;;9.60;99.90;;;;;;5035741;28;20332;-71
2021/07/04 11:36:16;;;;;;;7.80;4.40;;;9.60;99.90;;;;;;5053350;28;20179;-69
2021/07/04 11:38:53;;;;;;;11.40;4.90;;;9.50;99.90;;;;;;5053250;28;20187;-70
2021/07/04 11:41:25;;;;;;;6.93;4.73;;;9.50;99.90;;;;;;5053262;28;20221;-68
2021/07/04 11:44:02;;;;;;;9.57;4.50;;;9.50;99.90;;;;;;5048978;28;20176;-68
2021/07/04 11:46:31;;;;;;;7.60;4.73;;;9.40;99.90;;;;;;5042751;28;20176;-68
2021/07/04 11:49:10;;;;;;;5.07;3.87;;;9.30;99.90;;;;;;5053002;28;20179;-70
2021/07/04 11:51:52;;;;;;;7.73;4.77;;;9.40;99.90;;;;;;5052335;28;20274;-70
2021/07/04 11:54:29;;;;;;;8.50;4.07;;;9.30;99.90;;;;;;5051461;28;20179;-69
2021/07/04 12:00:06;;;;;;;8.73;4.40;;;9.30;99.90;;;;;;5055769;28;20276;-69
2021/07/04 12:02:43;;;;;;;8.43;4.50;;;9.20;99.90;;;;;;5052419;28;20652;-71
2021/07/04 12:05:15;;;;;;;6.20;4.23;;;9.20;99.90;;;;;;5041162;28;20183;-69
2021/07/04 12:07:42;;;;;;;10.63;4.57;;;9.20;99.90;;;;;;5056286;28;20221;-69
2021/07/04 12:10:10;;;;;;;7.17;4.47;;;9.20;99.90;;;;;;5052502;28;20203;-68
2021/07/04 12:12:39;;;;;;;6.50;4.43;;;9.10;99.90;;;;;;5052535;28;20575;-69
2021/07/04 12:15:08;;;;;;;10.13;5.10;;;9.10;99.90;;;;;;5052289;28;20182;-69
2021/07/04 12:17:46;;;;;;;8.93;4.83;;;9.10;99.90;;;;;;5029888;28;20218;-69
2021/07/04 12:20:16;;;;;;;5.87;4.50;;;9.00;99.90;;;;;;5039852;28;20283;-69
2021/07/04 12:22:58;;;;;;;10.87;5.03;;;9.00;99.90;;;;;;5052142;28;20186;-68
2021/07/04 12:25:30;;;;;;;9.23;4.40;;;9.00;99.90;;;;;;5049907;28;20179;-69
2021/07/04 12:28:07;;;;;;;6.30;4.20;;;8.90;99.90;;;;;;5052041;28;20710;-69
2021/07/04 12:30:42;;;;;;;6.23;3.80;;;8.80;99.90;;;;;;5034638;28;20252;-70
2021/07/04 12:33:16;;;;;;;8.53;4.30;;;8.80;99.90;;;;;;5052432;28;20177;-71
2021/07/04 12:35:45;;;;;;;7.63;3.70;;;8.90;99.90;;;;;;5052352;28;20178;-68
2021/07/04 12:38:17;;;;;;;6.50;3.80;;;8.90;99.90;;;;;;5052220;28;20621;-70
2021/07/04 12:41:02;;;;;;;5.20;3.57;;;8.80;99.90;;;;;;5051929;28;20249;-75
2021/07/04 12:43:33;;;;;;;6.97;3.90;;;8.80;99.90;;;;;;5038101;28;20222;-77
2021/07/04 12:46:03;;;;;;;8.33;3.83;;;8.70;99.90;;;;;;5052337;28;20185;-76
2021/07/04 12:48:39;;;;;;;6.60;4.17;;;8.70;99.90;;;;;;5052390;28;20221;-73
2021/07/04 12:51:07;;;;;;;8.40;3.87;;;8.70;99.90;;;;;;5052301;28;20529;-73
2021/07/04 12:53:43;;;;;;;5.67;3.63;;;8.60;99.90;;;;;;5053681;28;20185;-73
2021/07/04 12:56:30;;;;;;;6.20;3.90;;;8.70;99.90;;;;;;5063189;28;20634;-72
2021/07/04 12:59:27;;;;;;;5.10;3.40;;;8.70;99.90;;;;;;5051614;28;20176;-72
2021/07/04 13:01:58;;;;;;;5.10;3.53;;;8.70;99.90;;;;;;5052366;28;20231;-71
2021/07/04 13:04:26;;;;;;;6.47;3.47;;;8.70;99.90;;;;;;5034588;28;20584;-69